sensor_id;sensor_type;location;lat;lon;timestamp;pressure;altitude;pressure_sealevel;temperature;humidity
39823;BME280;25499;53.958;10.970;2023-07-31T09:28:38;100291.94;;;15.62;100.00
39823;BME280;25499;53.958;10.970;2023-07-31T09:31:05;100288.84;;;15.50;100.00
39823;BME280;25499;53.958;10.970;2023-07-31T09:33:32;100291.53;;;15.48;100.00
39823;BME280;25499;53.958;10.970;2023-07-31T09:36:00;100285.25;;;15.52;100.00
39823;BME280;25499;53.958;10.970;2023-07-31T09:38:28;100291.03;;;15.63;100.00
39823;BME280;25499;53.958;10.970;2023-07-31T09:40:55;100289.19;;;15.67;100.00
39823;BME280;25499;53.958;10.970;2023-07-31T09:43:27;100287.50;;;15.64;100.00
39823;BME280;25499;53.958;10.970;2023-07-31T09:45:56;100288.13;;;15.73;100.00
39823;BME280;25499;53.958;10.970;2023-07-31T09:48:24;100270.53;;;15.76;100.00
39823;BME280;25499;53.958;10.970;2023-07-31T09:50:52;100271.19;;;15.83;100.00
39823;BME280;25499;53.958;10.970;2023-07-31T09:53:19;100268.38;;;15.89;100.00
39823;BME280;25499;53.958;10.970;2023-07-31T09:55:54;100267.16;;;15.99;100.00
39823;BME280;25499;53.958;10.970;2023-07-31T09:58:23;100263.56;;;16.02;100.00
39823;BME280;25499;53.958;10.970;2023-07-31T10:00:50;100262.84;;;15.97;100.00
39823;BME280;25499;53.958;10.970;2023-07-31T10:03:18;100266.41;;;15.96;100.00
39823;BME280;25499;53.958;10.970;2023-07-31T10:05:50;100266.75;;;15.85;100.00
39823;BME280;25499;53.958;10.970;2023-07-31T10:08:20;100265.88;;;15.84;100.00
39823;BME280;25499;53.958;10.970;2023-07-31T10:10:48;100267.25;;;15.96;100.00
39823;BME280;25499;53.958;10.970;2023-07-31T10:13:15;100264.44;;;16.02;100.00
39823;BME280;25499;53.958;10.970;2023-07-31T10:15:43;100257.44;;;16.01;100.00
39823;BME280;25499;53.958;10.970;2023-07-31T10:18:10;100256.84;;;15.93;100.00
39823;BME280;25499;53.958;10.970;2023-07-31T10:20:40;100257.34;;;16.04;100.00
39823;BME280;25499;53.958;10.970;2023-07-31T10:23:07;100251.34;;;16.01;100.00
39823;BME280;25499;53.958;10.970;2023-07-31T10:25:36;100243.63;;;15.96;100.00
39823;BME280;25499;53.958;10.970;2023-07-31T10:28:03;100243.44;;;16.02;100.00
39823;BME280;25499;53.958;10.970;2023-07-31T10:30:32;100234.31;;;16.13;100.00
39823;BME280;25499;53.958;10.970;2023-07-31T10:33:00;100226.84;;;16.26;100.00
39823;BME280;25499;53.958;10.970;2023-07-31T10:35:28;100220.16;;;16.42;100.00
39823;BME280;25499;53.958;10.970;2023-07-31T10:38:09;100214.63;;;16.50;100.00
39823;BME280;25499;53.958;10.970;2023-07-31T10:40:37;100218.31;;;16.44;100.00
39823;BME280;25499;53.958;10.970;2023-07-31T10:43:05;100213.47;;;16.33;100.00
39823;BME280;25499;53.958;10.970;2023-07-31T10:45:35;100220.31;;;16.37;100.00
39823;BME280;25499;53.958;10.970;2023-07-31T10:48:04;100230.13;;;16.32;100.00
39823;BME280;25499;53.958;10.970;2023-07-31T10:50:32;100235.72;;;16.23;100.00
39823;BME280;25499;53.958;10.970;2023-07-31T10:53:00;100239.03;;;16.28;100.00
39823;BME280;25499;53.958;10.970;2023-07-31T10:55:30;100233.44;;;16.12;100.00
39823;BME280;25499;53.958;10.970;2023-07-31T10:58:00;100229.16;;;16.10;100.00
39823;BME280;25499;53.958;10.970;2023-07-31T11:00:32;100217.63;;;16.14;100.00
39823;BME280;25499;53.958;10.970;2023-07-31T11:03:03;100216.41;;;16.24;100.00
39823;BME280;25499;53.958;10.970;2023-07-31T11:05:44;100223.19;;;16.31;100.00
39823;BME280;25499;53.958;10.970;2023-07-31T11:08:17;100224.66;;;16.38;100.00
39823;BME280;25499;53.958;10.970;2023-07-31T11:10:45;100226.81;;;16.27;100.00
39823;BME280;25499;53.958;10.970;2023-07-31T11:13:13;100227.78;;;16.25;100.00
39823;BME280;25499;53.958;10.970;2023-07-31T11:15:40;100224.56;;;16.16;100.00
39823;BME280;25499;53.958;10.970;2023-07-31T11:18:08;100232.50;;;16.15;100.00
39823;BME280;25499;53.958;10.970;2023-07-31T11:20:37;100239.47;;;16.16;100.00
39823;BME280;25499;53.958;10.970;2023-07-31T11:23:07;100243.53;;;16.25;100.00
39823;BME280;25499;53.958;10.970;2023-07-31T11:25:35;100237.59;;;16.19;100.00
39823;BME280;25499;53.958;10.970;2023-07-31T11:28:04;100230.66;;;16.17;100.00
39823;BME280;25499;53.958;10.970;2023-07-31T11:30:33;100221.78;;;16.21;100.00
39823;BME280;25499;53.958;10.970;2023-07-31T11:33:01;100206.97;;;16.18;100.00
39823;BME280;25499;53.958;10.970;2023-07-31T11:35:30;100201.88;;;16.14;100.00
39823;BME280;25499;53.958;10.970;2023-07-31T11:37:57;100195.81;;;16.12;100.00
39823;BME280;25499;53.958;10.970;2023-07-31T11:40:24;100181.19;;;16.04;100.00
39823;BME280;25499;53.958;10.970;2023-07-31T11:42:56;100168.47;;;15.94;100.00
39823;BME280;25499;53.958;10.970;2023-07-31T11:45:26;100165.13;;;15.89;100.00
39823;BME280;25499;53.958;10.970;2023-07-31T11:47:54;100161.44;;;15.94;100.00
39823;BME280;25499;53.958;10.970;2023-07-31T11:50:22;100160.88;;;15.84;100.00
39823;BME280;25499;53.958;10.970;2023-07-31T11:52:54;100176.19;;;15.97;100.00
39823;BME280;25499;53.958;10.970;2023-07-31T11:55:23;100192.50;;;16.07;100.00
39823;BME280;25499;53.958;10.970;2023-07-31T11:57:51;100200.94;;;16.16;100.00
39823;BME280;25499;53.958;10.970;2023-07-31T12:00:20;100191.00;;;16.25;100.00
39823;BME280;25499;53.958;10.970;2023-07-31T12:02:50;100190.66;;;16.34;100.00
39823;BME280;25499;53.958;10.970;2023-07-31T12:05:17;100189.91;;;16.30;100.00
39823;BME280;25499;53.958;10.970;2023-07-31T12:07:48;100185.84;;;16.21;100.00
39823;BME280;25499;53.958;10.970;2023-07-31T12:10:26;100182.84;;;16.07;100.00
39823;BME280;25499;53.958;10.970;2023-07-31T12:13:01;100183.13;;;16.25;100.00
39823;BME280;25499;53.958;10.970;2023-07-31T12:15:40;100193.34;;;16.32;100.00
39823;BME280;25499;53.958;10.970;2023-07-31T12:18:09;100194.28;;;16.31;100.00
39823;BME280;25499;53.958;10.970;2023-07-31T12:20:41;100194.59;;;16.22;100.00
39823;BME280;25499;53.958;10.970;2023-07-31T12:23:13;100177.81;;;16.26;100.00
39823;BME280;25499;53.958;10.970;2023-07-31T12:25:40;100171.28;;;16.38;100.00
39823;BME280;25499;53.958;10.970;2023-07-31T12:28:08;100175.38;;;16.45;100.00
39823;BME280;25499;53.958;10.970;2023-07-31T12:30:39;100174.53;;;16.45;100.00
39823;BME280;25499;53.958;10.970;2023-07-31T12:33:12;100179.59;;;16.49;100.00
39823;BME280;25499;53.958;10.970;2023-07-31T12:35:42;100185.44;;;16.57;100.00
39823;BME280;25499;53.958;10.970;2023-07-31T12:38:10;100181.94;;;16.57;100.00
39823;BME280;25499;53.958;10.970;2023-07-31T12:40:38;100182.78;;;16.57;100.00
39823;BME280;25499;53.958;10.970;2023-07-31T12:43:06;100169.38;;;16.41;100.00
39823;BME280;25499;53.958;10.970;2023-07-31T12:45:33;100169.94;;;16.26;100.00
39823;BME280;25499;53.958;10.970;2023-07-31T12:48:02;100171.06;;;16.19;100.00
39823;BME280;25499;53.958;10.970;2023-07-31T12:50:29;100175.88;;;16.31;100.00
39823;BME280;25499;53.958;10.970;2023-07-31T12:52:56;100176.22;;;16.46;100.00
39823;BME280;25499;53.958;10.970;2023-07-31T12:55:23;100169.31;;;16.43;100.00
39823;BME280;25499;53.958;10.970;2023-07-31T12:57:50;100158.94;;;16.40;100.00
39823;BME280;25499;53.958;10.970;2023-07-31T13:00:17;100154.50;;;16.40;100.00
39823;BME280;25499;53.958;10.970;2023-07-31T13:02:45;100151.78;;;16.44;100.00
39823;BME280;25499;53.958;10.970;2023-07-31T13:05:13;100153.72;;;16.38;100.00
39823;BME280;25499;53.958;10.970;2023-07-31T13:07:41;100145.63;;;16.45;100.00
39823;BME280;25499;53.958;10.970;2023-07-31T13:10:08;100141.25;;;16.67;100.00
39823;BME280;25499;53.958;10.970;2023-07-31T13:12:35;100134.88;;;16.51;100.00
39823;BME280;25499;53.958;10.970;2023-07-31T13:15:02;100131.56;;;16.46;100.00
39823;BME280;25499;53.958;10.970;2023-07-31T13:17:28;100119.84;;;16.31;100.00
39823;BME280;25499;53.958;10.970;2023-07-31T13:19:55;100121.72;;;16.27;100.00
39823;BME280;25499;53.958;10.970;2023-07-31T13:22:23;100127.03;;;16.26;100.00
39823;BME280;25499;53.958;10.970;2023-07-31T13:24:50;100125.72;;;16.37;100.00
39823;BME280;25499;53.958;10.970;2023-07-31T13:27:17;100135.34;;;16.38;100.00
39823;BME280;25499;53.958;10.970;2023-07-31T13:29:46;100133.38;;;16.44;100.00
39823;BME280;25499;53.958;10.970;2023-07-31T13:32:12;100138.91;;;16.36;100.00
39823;BME280;25499;53.958;10.970;2023-07-31T13:34:39;100138.75;;;16.40;100.00
39823;BME280;25499;53.958;10.970;2023-07-31T13:37:06;100138.00;;;16.37;100.00
39823;BME280;25499;53.958;10.970;2023-07-31T13:39:34;100130.53;;;16.26;100.00
39823;BME280;25499;53.958;10.970;2023-07-31T13:42:04;100131.66;;;16.42;100.00
39823;BME280;25499;53.958;10.970;2023-07-31T13:44:32;100132.03;;;16.33;100.00
39823;BME280;25499;53.958;10.970;2023-07-31T13:46:59;100128.13;;;16.44;100.00
39823;BME280;25499;53.958;10.970;2023-07-31T13:49:25;100131.75;;;16.63;100.00
39823;BME280;25499;53.958;10.970;2023-07-31T13:51:52;100129.59;;;16.74;100.00
39823;BME280;25499;53.958;10.970;2023-07-31T13:54:19;100115.09;;;16.88;100.00
39823;BME280;25499;53.958;10.970;2023-07-31T13:56:47;100115.13;;;16.86;100.00
39823;BME280;25499;53.958;10.970;2023-07-31T13:59:14;100123.09;;;17.07;100.00
39823;BME280;25499;53.958;10.970;2023-07-31T14:01:42;100112.16;;;17.18;100.00
39823;BME280;25499;53.958;10.970;2023-07-31T14:04:09;100109.69;;;17.13;100.00
39823;BME280;25499;53.958;10.970;2023-07-31T14:06:35;100112.81;;;17.23;100.00
39823;BME280;25499;53.958;10.970;2023-07-31T14:09:03;100101.75;;;17.14;100.00
39823;BME280;25499;53.958;10.970;2023-07-31T14:11:30;100108.16;;;17.29;100.00
39823;BME280;25499;53.958;10.970;2023-07-31T14:13:59;100108.22;;;17.28;100.00
39823;BME280;25499;53.958;10.970;2023-07-31T14:16:27;100105.63;;;17.06;100.00
39823;BME280;25499;53.958;10.970;2023-07-31T14:18:53;100100.19;;;17.09;100.00
39823;BME280;25499;53.958;10.970;2023-07-31T14:21:20;100102.78;;;16.88;100.00
39823;BME280;25499;53.958;10.970;2023-07-31T14:23:47;100104.34;;;16.94;100.00
39823;BME280;25499;53.958;10.970;2023-07-31T14:26:13;100098.91;;;16.97;100.00
39823;BME280;25499;53.958;10.970;2023-07-31T14:28:40;100109.31;;;17.00;100.00
39823;BME280;25499;53.958;10.970;2023-07-31T14:31:12;100096.94;;;16.80;100.00
39823;BME280;25499;53.958;10.970;2023-07-31T14:33:39;100082.75;;;16.86;100.00
39823;BME280;25499;53.958;10.970;2023-07-31T14:36:06;100084.94;;;16.96;100.00
39823;BME280;25499;53.958;10.970;2023-07-31T14:38:33;100092.84;;;17.17;100.00
39823;BME280;25499;53.958;10.970;2023-07-31T14:41:00;100092.00;;;17.17;100.00
39823;BME280;25499;53.958;10.970;2023-07-31T14:43:27;100089.41;;;16.94;100.00
39823;BME280;25499;53.958;10.970;2023-07-31T14:45:54;100091.00;;;16.75;100.00
39823;BME280;25499;53.958;10.970;2023-07-31T14:48:26;100084.84;;;16.76;100.00
39823;BME280;25499;53.958;10.970;2023-07-31T14:50:54;100099.09;;;16.70;100.00
39823;BME280;25499;53.958;10.970;2023-07-31T14:53:21;100090.81;;;16.57;100.00
39823;BME280;25499;53.958;10.970;2023-07-31T14:55:48;100101.56;;;16.51;100.00
39823;BME280;25499;53.958;10.970;2023-07-31T14:58:15;100108.63;;;16.49;100.00
39823;BME280;25499;53.958;10.970;2023-07-31T15:00:42;100099.50;;;16.36;100.00
39823;BME280;25499;53.958;10.970;2023-07-31T15:03:10;100109.38;;;16.29;100.00
39823;BME280;25499;53.958;10.970;2023-07-31T15:05:38;100104.59;;;16.17;100.00
39823;BME280;25499;53.958;10.970;2023-07-31T15:08:05;100103.84;;;16.13;100.00
39823;BME280;25499;53.958;10.970;2023-07-31T15:10:31;100097.22;;;16.03;100.00
39823;BME280;25499;53.958;10.970;2023-07-31T15:12:58;100093.75;;;16.02;100.00
39823;BME280;25499;53.958;10.970;2023-07-31T15:15:27;100100.88;;;15.99;100.00
39823;BME280;25499;53.958;10.970;2023-07-31T15:17:53;100099.69;;;16.08;100.00
39823;BME280;25499;53.958;10.970;2023-07-31T15:20:23;100095.03;;;16.16;100.00
39823;BME280;25499;53.958;10.970;2023-07-31T15:22:51;100092.50;;;16.13;100.00
39823;BME280;25499;53.958;10.970;2023-07-31T15:25:18;100091.22;;;15.99;100.00
39823;BME280;25499;53.958;10.970;2023-07-31T15:27:45;100089.63;;;15.95;100.00
39823;BME280;25499;53.958;10.970;2023-07-31T15:30:12;100094.38;;;15.85;100.00
39823;BME280;25499;53.958;10.970;2023-07-31T15:32:39;100099.66;;;15.84;100.00
39823;BME280;25499;53.958;10.970;2023-07-31T15:35:06;100094.88;;;15.70;100.00
39823;BME280;25499;53.958;10.970;2023-07-31T15:37:33;100089.63;;;15.70;100.00
39823;BME280;25499;53.958;10.970;2023-07-31T15:40:01;100085.56;;;15.61;100.00
39823;BME280;25499;53.958;10.970;2023-07-31T15:42:28;100084.13;;;15.51;100.00
39823;BME280;25499;53.958;10.970;2023-07-31T15:44:55;100078.88;;;15.51;100.00
39823;BME280;25499;53.958;10.970;2023-07-31T15:47:22;100078.78;;;15.54;100.00
39823;BME280;25499;53.958;10.970;2023-07-31T15:49:49;100066.47;;;15.56;100.00
39823;BME280;25499;53.958;10.970;2023-07-31T15:52:15;100057.50;;;15.63;100.00
39823;BME280;25499;53.958;10.970;2023-07-31T15:54:42;100049.66;;;15.62;100.00
39823;BME280;25499;53.958;10.970;2023-07-31T15:57:10;100054.81;;;15.65;100.00
39823;BME280;25499;53.958;10.970;2023-07-31T15:59:37;100045.84;;;15.71;100.00
39823;BME280;25499;53.958;10.970;2023-07-31T16:02:04;100049.19;;;15.76;100.00
39823;BME280;25499;53.958;10.970;2023-07-31T16:04:30;100056.34;;;15.71;100.00
39823;BME280;25499;53.958;10.970;2023-07-31T16:06:57;100051.56;;;15.83;100.00
39823;BME280;25499;53.958;10.970;2023-07-31T16:09:24;100045.44;;;15.83;100.00
39823;BME280;25499;53.958;10.970;2023-07-31T16:11:51;100039.56;;;15.75;100.00
39823;BME280;25499;53.958;10.970;2023-07-31T16:14:19;100021.38;;;15.70;100.00
39823;BME280;25499;53.958;10.970;2023-07-31T16:16:45;100025.00;;;15.91;100.00
39823;BME280;25499;53.958;10.970;2023-07-31T16:19:14;100026.78;;;15.91;100.00
39823;BME280;25499;53.958;10.970;2023-07-31T16:21:40;100015.88;;;15.78;100.00
39823;BME280;25499;53.958;10.970;2023-07-31T16:24:07;100019.19;;;15.83;100.00
39823;BME280;25499;53.958;10.970;2023-07-31T16:26:34;100017.72;;;15.74;100.00
39823;BME280;25499;53.958;10.970;2023-07-31T16:29:01;100015.16;;;15.73;100.00
39823;BME280;25499;53.958;10.970;2023-07-31T16:31:29;100010.00;;;15.70;100.00
39823;BME280;25499;53.958;10.970;2023-07-31T16:33:55;99999.03;;;15.60;100.00
39823;BME280;25499;53.958;10.970;2023-07-31T16:36:23;99998.72;;;15.67;100.00
39823;BME280;25499;53.958;10.970;2023-07-31T16:38:50;99999.56;;;15.68;100.00
39823;BME280;25499;53.958;10.970;2023-07-31T16:41:17;100004.44;;;15.80;100.00
39823;BME280;25499;53.958;10.970;2023-07-31T16:43:44;99999.47;;;15.71;100.00
39823;BME280;25499;53.958;10.970;2023-07-31T16:46:11;100008.22;;;15.72;100.00
39823;BME280;25499;53.958;10.970;2023-07-31T16:48:39;100006.31;;;15.77;100.00
39823;BME280;25499;53.958;10.970;2023-07-31T16:51:05;100005.75;;;15.67;100.00
39823;BME280;25499;53.958;10.970;2023-07-31T16:53:32;100001.59;;;15.61;100.00
39823;BME280;25499;53.958;10.970;2023-07-31T16:55:59;100000.59;;;15.64;100.00
39823;BME280;25499;53.958;10.970;2023-07-31T16:58:27;100000.66;;;15.62;100.00
39823;BME280;25499;53.958;10.970;2023-07-31T17:00:54;100011.09;;;15.64;100.00
39823;BME280;25499;53.958;10.970;2023-07-31T17:03:20;100002.19;;;15.68;100.00
39823;BME280;25499;53.958;10.970;2023-07-31T17:05:48;100004.25;;;15.60;100.00
39823;BME280;25499;53.958;10.970;2023-07-31T17:08:15;100003.38;;;15.59;100.00
39823;BME280;25499;53.958;10.970;2023-07-31T17:10:42;99993.97;;;15.54;100.00
39823;BME280;25499;53.958;10.970;2023-07-31T17:13:08;99991.41;;;15.52;100.00
39823;BME280;25499;53.958;10.970;2023-07-31T17:15:36;99985.38;;;15.50;100.00
39823;BME280;25499;53.958;10.970;2023-07-31T17:18:03;99987.06;;;15.51;100.00
39823;BME280;25499;53.958;10.970;2023-07-31T17:20:30;99982.94;;;15.44;100.00
39823;BME280;25499;53.958;10.970;2023-07-31T17:22:59;99976.00;;;15.43;100.00
39823;BME280;25499;53.958;10.970;2023-07-31T17:25:26;99978.75;;;15.40;100.00
39823;BME280;25499;53.958;10.970;2023-07-31T17:27:53;99981.22;;;15.44;100.00
39823;BME280;25499;53.958;10.970;2023-07-31T17:30:19;99979.53;;;15.42;100.00
39823;BME280;25499;53.958;10.970;2023-07-31T17:32:46;99988.25;;;15.42;100.00
39823;BME280;25499;53.958;10.970;2023-07-31T17:35:13;99983.94;;;15.41;100.00
39823;BME280;25499;53.958;10.970;2023-07-31T17:37:40;99981.22;;;15.44;100.00
39823;BME280;25499;53.958;10.970;2023-07-31T17:40:09;99984.69;;;15.45;100.00
39823;BME280;25499;53.958;10.970;2023-07-31T17:42:36;99981.25;;;15.43;100.00
39823;BME280;25499;53.958;10.970;2023-07-31T17:45:03;99983.00;;;15.42;100.00
39823;BME280;25499;53.958;10.970;2023-07-31T17:47:30;99985.69;;;15.41;100.00
39823;BME280;25499;53.958;10.970;2023-07-31T17:49:57;99976.06;;;15.41;100.00
39823;BME280;25499;53.958;10.970;2023-07-31T17:52:23;99972.63;;;15.39;100.00
39823;BME280;25499;53.958;10.970;2023-07-31T17:54:50;99970.06;;;15.38;100.00
39823;BME280;25499;53.958;10.970;2023-07-31T17:57:21;99964.94;;;15.35;100.00
39823;BME280;25499;53.958;10.970;2023-07-31T17:59:47;99959.63;;;15.36;100.00
39823;BME280;25499;53.958;10.970;2023-07-31T18:02:14;99965.72;;;15.37;100.00
39823;BME280;25499;53.958;10.970;2023-07-31T18:04:41;99969.09;;;15.40;100.00
39823;BME280;25499;53.958;10.970;2023-07-31T18:07:08;99972.41;;;15.45;100.00
39823;BME280;25499;53.958;10.970;2023-07-31T18:09:34;99964.19;;;15.31;100.00
39823;BME280;25499;53.958;10.970;2023-07-31T18:12:01;99960.75;;;15.29;100.00
39823;BME280;25499;53.958;10.970;2023-07-31T18:14:30;99955.56;;;15.27;100.00
39823;BME280;25499;53.958;10.970;2023-07-31T18:16:59;99946.09;;;15.23;100.00
39823;BME280;25499;53.958;10.970;2023-07-31T18:19:27;99942.63;;;15.23;100.00
39823;BME280;25499;53.958;10.970;2023-07-31T18:21:53;99955.78;;;15.21;100.00
39823;BME280;25499;53.958;10.970;2023-07-31T18:24:20;99964.50;;;15.22;100.00
39823;BME280;25499;53.958;10.970;2023-07-31T18:26:47;99959.16;;;15.25;100.00
39823;BME280;25499;53.958;10.970;2023-07-31T18:29:13;99953.16;;;15.21;100.00
39823;BME280;25499;53.958;10.970;2023-07-31T18:31:42;99951.53;;;15.17;100.00
39823;BME280;25499;53.958;10.970;2023-07-31T18:34:08;99949.09;;;15.13;100.00
39823;BME280;25499;53.958;10.970;2023-07-31T18:36:42;99956.72;;;15.19;100.00
39823;BME280;25499;53.958;10.970;2023-07-31T18:39:09;99944.69;;;15.13;100.00
39823;BME280;25499;53.958;10.970;2023-07-31T18:41:36;99948.91;;;15.17;100.00
39823;BME280;25499;53.958;10.970;2023-07-31T18:44:04;99952.25;;;15.22;100.00
39823;BME280;25499;53.958;10.970;2023-07-31T18:46:31;99948.16;;;15.14;100.00
39823;BME280;25499;53.958;10.970;2023-07-31T18:48:59;99951.72;;;15.13;100.00
39823;BME280;25499;53.958;10.970;2023-07-31T18:51:26;99949.94;;;15.13;100.00
39823;BME280;25499;53.958;10.970;2023-07-31T18:53:53;99940.25;;;15.15;100.00
39823;BME280;25499;53.958;10.970;2023-07-31T18:56:20;99933.91;;;15.22;100.00
39823;BME280;25499;53.958;10.970;2023-07-31T18:58:47;99935.34;;;15.31;100.00
39823;BME280;25499;53.958;10.970;2023-07-31T19:01:15;99932.53;;;15.36;100.00
39823;BME280;25499;53.958;10.970;2023-07-31T19:03:42;99929.56;;;15.21;100.00
39823;BME280;25499;53.958;10.970;2023-07-31T19:06:10;99935.50;;;15.26;100.00
39823;BME280;25499;53.958;10.970;2023-07-31T19:08:37;99932.81;;;15.28;100.00
39823;BME280;25499;53.958;10.970;2023-07-31T19:11:04;99939.91;;;15.26;100.00
39823;BME280;25499;53.958;10.970;2023-07-31T19:13:31;99938.91;;;15.28;100.00
39823;BME280;25499;53.958;10.970;2023-07-31T19:15:58;99936.94;;;15.35;100.00
39823;BME280;25499;53.958;10.970;2023-07-31T19:18:25;99927.53;;;15.29;100.00
39823;BME280;25499;53.958;10.970;2023-07-31T19:20:52;99941.44;;;15.32;100.00
39823;BME280;25499;53.958;10.970;2023-07-31T19:23:21;99946.38;;;15.39;100.00
39823;BME280;25499;53.958;10.970;2023-07-31T19:25:53;99940.94;;;15.45;100.00
39823;BME280;25499;53.958;10.970;2023-07-31T19:28:33;99943.66;;;15.42;100.00
39823;BME280;25499;53.958;10.970;2023-07-31T19:31:13;99945.38;;;15.43;100.00
39823;BME280;25499;53.958;10.970;2023-07-31T19:33:56;99949.63;;;15.46;100.00
39823;BME280;25499;53.958;10.970;2023-07-31T19:37:28;99952.16;;;15.49;100.00
39823;BME280;25499;53.958;10.970;2023-07-31T19:39:56;99958.03;;;15.56;100.00
39823;BME280;25499;53.958;10.970;2023-07-31T19:42:31;99964.97;;;15.58;100.00
39823;BME280;25499;53.958;10.970;2023-07-31T19:45:03;99959.59;;;15.61;100.00
39823;BME280;25499;53.958;10.970;2023-07-31T19:47:37;99950.28;;;15.53;100.00
39823;BME280;25499;53.958;10.970;2023-07-31T19:50:09;99951.72;;;15.61;100.00
39823;BME280;25499;53.958;10.970;2023-07-31T19:52:43;99949.22;;;15.58;100.00
39823;BME280;25499;53.958;10.970;2023-07-31T19:55:27;99947.16;;;15.66;100.00
39823;BME280;25499;53.958;10.970;2023-07-31T19:58:03;99945.34;;;15.69;100.00
39823;BME280;25499;53.958;10.970;2023-07-31T20:00:36;99940.75;;;15.75;100.00
39823;BME280;25499;53.958;10.970;2023-07-31T20:03:08;99941.22;;;15.85;100.00
39823;BME280;25499;53.958;10.970;2023-07-31T20:05:39;99936.75;;;15.89;100.00
39823;BME280;25499;53.958;10.970;2023-07-31T20:08:10;99933.25;;;15.88;100.00
39823;BME280;25499;53.958;10.970;2023-07-31T20:10:42;99938.84;;;16.02;100.00
39823;BME280;25499;53.958;10.970;2023-07-31T20:13:14;99938.09;;;15.99;100.00
39823;BME280;25499;53.958;10.970;2023-07-31T20:15:49;99937.63;;;16.11;100.00
